sensor_id;sensor_type;location;lat;lon;timestamp;P1;durP1;ratioP1;P2;durP2;ratioP2
45764;SDS011;31474;45.332;10.230;2023-07-20T00:00:49;10.05;;;6.25;;
45764;SDS011;31474;45.332;10.230;2023-07-20T00:03:18;13.07;;;5.60;;
45764;SDS011;31474;45.332;10.230;2023-07-20T00:05:48;8.77;;;5.90;;
45764;SDS011;31474;45.332;10.230;2023-07-20T00:08:15;8.98;;;6.43;;
45764;SDS011;31474;45.332;10.230;2023-07-20T00:10:42;14.55;;;7.28;;
45764;SDS011;31474;45.332;10.230;2023-07-20T00:13:08;10.65;;;6.45;;
45764;SDS011;31474;45.332;10.230;2023-07-20T00:15:34;9.63;;;6.43;;
45764;SDS011;31474;45.332;10.230;2023-07-20T00:18:00;13.70;;;5.68;;
45764;SDS011;31474;45.332;10.230;2023-07-20T00:20:26;8.40;;;6.40;;
45764;SDS011;31474;45.332;10.230;2023-07-20T00:22:52;9.70;;;6.57;;
45764;SDS011;31474;45.332;10.230;2023-07-20T00:25:18;8.98;;;5.88;;
45764;SDS011;31474;45.332;10.230;2023-07-20T00:27:43;9.85;;;5.78;;
45764;SDS011;31474;45.332;10.230;2023-07-20T00:30:09;9.30;;;5.45;;
45764;SDS011;31474;45.332;10.230;2023-07-20T00:32:35;9.45;;;6.47;;
45764;SDS011;31474;45.332;10.230;2023-07-20T00:35:01;8.98;;;6.55;;
45764;SDS011;31474;45.332;10.230;2023-07-20T00:37:26;7.43;;;5.65;;
45764;SDS011;31474;45.332;10.230;2023-07-20T00:39:52;9.38;;;6.43;;
45764;SDS011;31474;45.332;10.230;2023-07-20T00:42:18;11.35;;;6.47;;
45764;SDS011;31474;45.332;10.230;2023-07-20T00:44:44;14.23;;;6.80;;
45764;SDS011;31474;45.332;10.230;2023-07-20T00:47:09;9.52;;;5.25;;
45764;SDS011;31474;45.332;10.230;2023-07-20T00:49:35;11.93;;;6.07;;
45764;SDS011;31474;45.332;10.230;2023-07-20T00:52:02;9.40;;;5.88;;
45764;SDS011;31474;45.332;10.230;2023-07-20T00:54:31;12.38;;;6.03;;
45764;SDS011;31474;45.332;10.230;2023-07-20T00:56:57;8.85;;;5.85;;
45764;SDS011;31474;45.332;10.230;2023-07-20T00:59:25;10.70;;;6.20;;
45764;SDS011;31474;45.332;10.230;2023-07-20T01:01:51;9.57;;;5.85;;
45764;SDS011;31474;45.332;10.230;2023-07-20T01:04:17;8.80;;;5.72;;
45764;SDS011;31474;45.332;10.230;2023-07-20T01:10:21;7.82;;;6.28;;
45764;SDS011;31474;45.332;10.230;2023-07-20T01:12:22;15.65;;;6.93;;
45764;SDS011;31474;45.332;10.230;2023-07-20T01:14:50;8.52;;;6.25;;
45764;SDS011;31474;45.332;10.230;2023-07-20T01:17:16;11.73;;;7.35;;
45764;SDS011;31474;45.332;10.230;2023-07-20T01:19:42;10.90;;;6.50;;
45764;SDS011;31474;45.332;10.230;2023-07-20T01:31:21;13.95;;;7.43;;
45764;SDS011;31474;45.332;10.230;2023-07-20T01:33:48;16.05;;;7.05;;
45764;SDS011;31474;45.332;10.230;2023-07-20T01:36:17;14.02;;;8.98;;
45764;SDS011;31474;45.332;10.230;2023-07-20T01:38:44;8.60;;;7.15;;
45764;SDS011;31474;45.332;10.230;2023-07-20T01:41:11;15.85;;;7.35;;
45764;SDS011;31474;45.332;10.230;2023-07-20T01:43:37;13.38;;;7.40;;
45764;SDS011;31474;45.332;10.230;2023-07-20T01:46:02;12.75;;;7.22;;
45764;SDS011;31474;45.332;10.230;2023-07-20T01:48:28;11.50;;;7.57;;
45764;SDS011;31474;45.332;10.230;2023-07-20T01:50:54;12.48;;;8.38;;
45764;SDS011;31474;45.332;10.230;2023-07-20T01:53:20;10.95;;;7.25;;
45764;SDS011;31474;45.332;10.230;2023-07-20T01:55:46;9.20;;;6.47;;
45764;SDS011;31474;45.332;10.230;2023-07-20T01:58:11;14.25;;;6.72;;
45764;SDS011;31474;45.332;10.230;2023-07-20T02:00:37;10.10;;;6.50;;
45764;SDS011;31474;45.332;10.230;2023-07-20T02:03:03;10.45;;;5.97;;
45764;SDS011;31474;45.332;10.230;2023-07-20T02:05:29;10.15;;;5.13;;
45764;SDS011;31474;45.332;10.230;2023-07-20T02:07:55;8.25;;;4.28;;
45764;SDS011;31474;45.332;10.230;2023-07-20T02:10:21;7.18;;;4.18;;
45764;SDS011;31474;45.332;10.230;2023-07-20T02:12:47;6.40;;;4.53;;
45764;SDS011;31474;45.332;10.230;2023-07-20T02:15:13;8.93;;;4.95;;
45764;SDS011;31474;45.332;10.230;2023-07-20T02:17:41;7.75;;;4.78;;
45764;SDS011;31474;45.332;10.230;2023-07-20T02:20:07;7.18;;;4.45;;
45764;SDS011;31474;45.332;10.230;2023-07-20T02:22:35;5.60;;;4.60;;
45764;SDS011;31474;45.332;10.230;2023-07-20T02:25:04;6.93;;;4.38;;
45764;SDS011;31474;45.332;10.230;2023-07-20T02:27:32;6.10;;;4.70;;
45764;SDS011;31474;45.332;10.230;2023-07-20T02:30:01;8.07;;;5.00;;
45764;SDS011;31474;45.332;10.230;2023-07-20T02:32:28;7.22;;;5.07;;
45764;SDS011;31474;45.332;10.230;2023-07-20T02:34:53;6.05;;;4.07;;
45764;SDS011;31474;45.332;10.230;2023-07-20T02:37:19;7.43;;;4.95;;
45764;SDS011;31474;45.332;10.230;2023-07-20T02:39:45;7.95;;;4.53;;
45764;SDS011;31474;45.332;10.230;2023-07-20T02:42:10;8.07;;;5.70;;
45764;SDS011;31474;45.332;10.230;2023-07-20T02:44:36;8.70;;;5.43;;
45764;SDS011;31474;45.332;10.230;2023-07-20T02:47:02;9.48;;;4.97;;
45764;SDS011;31474;45.332;10.230;2023-07-20T02:49:27;8.43;;;4.80;;
45764;SDS011;31474;45.332;10.230;2023-07-20T02:51:53;6.63;;;4.55;;
45764;SDS011;31474;45.332;10.230;2023-07-20T02:54:19;5.18;;;3.92;;
45764;SDS011;31474;45.332;10.230;2023-07-20T02:56:46;6.38;;;3.60;;
45764;SDS011;31474;45.332;10.230;2023-07-20T02:59:11;5.32;;;3.97;;
45764;SDS011;31474;45.332;10.230;2023-07-20T03:01:37;7.90;;;4.70;;
45764;SDS011;31474;45.332;10.230;2023-07-20T03:04:03;8.60;;;4.63;;
45764;SDS011;31474;45.332;10.230;2023-07-20T03:06:29;5.68;;;4.03;;
45764;SDS011;31474;45.332;10.230;2023-07-20T03:08:54;6.07;;;4.10;;
45764;SDS011;31474;45.332;10.230;2023-07-20T03:11:20;6.47;;;4.20;;
45764;SDS011;31474;45.332;10.230;2023-07-20T03:13:46;4.55;;;3.55;;
45764;SDS011;31474;45.332;10.230;2023-07-20T03:16:14;8.25;;;4.20;;
45764;SDS011;31474;45.332;10.230;2023-07-20T03:18:42;5.13;;;4.03;;
45764;SDS011;31474;45.332;10.230;2023-07-20T03:21:08;7.00;;;4.07;;
45764;SDS011;31474;45.332;10.230;2023-07-20T03:23:38;8.85;;;4.55;;
45764;SDS011;31474;45.332;10.230;2023-07-20T03:26:05;9.43;;;5.00;;
45764;SDS011;31474;45.332;10.230;2023-07-20T03:28:33;6.45;;;4.75;;
45764;SDS011;31474;45.332;10.230;2023-07-20T03:30:59;6.97;;;4.53;;
45764;SDS011;31474;45.332;10.230;2023-07-20T03:33:25;6.10;;;4.40;;
45764;SDS011;31474;45.332;10.230;2023-07-20T03:35:52;6.63;;;4.47;;
45764;SDS011;31474;45.332;10.230;2023-07-20T03:38:19;6.78;;;4.88;;
45764;SDS011;31474;45.332;10.230;2023-07-20T03:40:58;7.82;;;4.95;;
45764;SDS011;31474;45.332;10.230;2023-07-20T03:43:25;5.75;;;4.50;;
45764;SDS011;31474;45.332;10.230;2023-07-20T03:45:53;7.10;;;4.25;;
45764;SDS011;31474;45.332;10.230;2023-07-20T03:48:19;8.40;;;5.20;;
45764;SDS011;31474;45.332;10.230;2023-07-20T03:50:47;6.68;;;4.90;;
45764;SDS011;31474;45.332;10.230;2023-07-20T03:53:14;6.05;;;4.53;;
45764;SDS011;31474;45.332;10.230;2023-07-20T03:55:41;10.30;;;4.80;;
45764;SDS011;31474;45.332;10.230;2023-07-20T03:58:09;8.38;;;5.60;;
45764;SDS011;31474;45.332;10.230;2023-07-20T04:00:35;6.25;;;4.43;;
45764;SDS011;31474;45.332;10.230;2023-07-20T04:03:00;7.28;;;4.32;;
45764;SDS011;31474;45.332;10.230;2023-07-20T04:05:26;7.45;;;4.68;;
45764;SDS011;31474;45.332;10.230;2023-07-20T04:07:52;8.88;;;5.35;;
45764;SDS011;31474;45.332;10.230;2023-07-20T04:10:18;10.07;;;5.10;;
45764;SDS011;31474;45.332;10.230;2023-07-20T04:12:44;8.48;;;4.90;;
45764;SDS011;31474;45.332;10.230;2023-07-20T04:15:12;6.28;;;4.63;;
45764;SDS011;31474;45.332;10.230;2023-07-20T04:17:38;7.28;;;4.75;;
45764;SDS011;31474;45.332;10.230;2023-07-20T04:20:04;12.55;;;5.70;;
45764;SDS011;31474;45.332;10.230;2023-07-20T04:22:31;7.22;;;5.32;;
45764;SDS011;31474;45.332;10.230;2023-07-20T04:24:57;17.65;;;5.30;;
45764;SDS011;31474;45.332;10.230;2023-07-20T04:27:22;5.95;;;4.70;;
45764;SDS011;31474;45.332;10.230;2023-07-20T04:29:48;11.32;;;5.10;;
45764;SDS011;31474;45.332;10.230;2023-07-20T04:32:14;8.27;;;5.75;;
45764;SDS011;31474;45.332;10.230;2023-07-20T04:34:39;7.85;;;4.50;;
45764;SDS011;31474;45.332;10.230;2023-07-20T04:37:05;6.75;;;4.18;;
45764;SDS011;31474;45.332;10.230;2023-07-20T04:39:30;8.13;;;5.07;;
45764;SDS011;31474;45.332;10.230;2023-07-20T04:41:56;13.15;;;4.93;;
45764;SDS011;31474;45.332;10.230;2023-07-20T04:44:22;13.60;;;5.47;;
45764;SDS011;31474;45.332;10.230;2023-07-20T04:46:48;14.02;;;5.13;;
45764;SDS011;31474;45.332;10.230;2023-07-20T04:49:14;11.07;;;6.18;;
45764;SDS011;31474;45.332;10.230;2023-07-20T04:51:40;19.00;;;5.32;;
45764;SDS011;31474;45.332;10.230;2023-07-20T04:54:05;8.77;;;5.22;;
45764;SDS011;31474;45.332;10.230;2023-07-20T04:56:31;9.27;;;4.95;;
45764;SDS011;31474;45.332;10.230;2023-07-20T04:58:58;9.20;;;5.40;;
45764;SDS011;31474;45.332;10.230;2023-07-20T05:01:24;8.25;;;5.43;;
45764;SDS011;31474;45.332;10.230;2023-07-20T05:03:49;7.00;;;5.43;;
45764;SDS011;31474;45.332;10.230;2023-07-20T05:06:15;9.93;;;6.03;;
45764;SDS011;31474;45.332;10.230;2023-07-20T05:08:41;8.95;;;6.18;;
45764;SDS011;31474;45.332;10.230;2023-07-20T05:11:07;9.32;;;5.82;;
45764;SDS011;31474;45.332;10.230;2023-07-20T05:13:33;8.27;;;5.80;;
45764;SDS011;31474;45.332;10.230;2023-07-20T05:15:58;9.32;;;5.10;;
45764;SDS011;31474;45.332;10.230;2023-07-20T05:18:24;6.68;;;4.60;;
45764;SDS011;31474;45.332;10.230;2023-07-20T05:20:50;6.93;;;4.65;;
45764;SDS011;31474;45.332;10.230;2023-07-20T05:23:19;6.43;;;4.97;;
45764;SDS011;31474;45.332;10.230;2023-07-20T05:25:45;6.93;;;4.65;;
45764;SDS011;31474;45.332;10.230;2023-07-20T05:28:10;10.60;;;5.70;;
45764;SDS011;31474;45.332;10.230;2023-07-20T05:30:36;10.73;;;5.90;;
45764;SDS011;31474;45.332;10.230;2023-07-20T05:33:02;8.52;;;6.50;;
45764;SDS011;31474;45.332;10.230;2023-07-20T05:35:28;8.80;;;6.55;;
45764;SDS011;31474;45.332;10.230;2023-07-20T05:37:54;11.23;;;6.13;;
45764;SDS011;31474;45.332;10.230;2023-07-20T05:40:20;12.45;;;6.00;;
45764;SDS011;31474;45.332;10.230;2023-07-20T05:42:46;12.70;;;6.40;;
45764;SDS011;31474;45.332;10.230;2023-07-20T05:45:17;7.63;;;5.88;;
45764;SDS011;31474;45.332;10.230;2023-07-20T05:47:43;11.98;;;6.50;;
45764;SDS011;31474;45.332;10.230;2023-07-20T05:50:09;8.75;;;6.00;;
45764;SDS011;31474;45.332;10.230;2023-07-20T05:52:35;8.88;;;6.90;;
45764;SDS011;31474;45.332;10.230;2023-07-20T05:55:03;10.13;;;6.05;;
45764;SDS011;31474;45.332;10.230;2023-07-20T05:57:30;8.85;;;5.88;;
45764;SDS011;31474;45.332;10.230;2023-07-20T05:59:55;8.25;;;6.18;;
45764;SDS011;31474;45.332;10.230;2023-07-20T06:02:21;5.63;;;4.88;;
45764;SDS011;31474;45.332;10.230;2023-07-20T06:04:46;8.18;;;5.63;;
45764;SDS011;31474;45.332;10.230;2023-07-20T06:07:12;11.88;;;5.93;;
45764;SDS011;31474;45.332;10.230;2023-07-20T06:09:38;8.60;;;5.70;;
45764;SDS011;31474;45.332;10.230;2023-07-20T06:12:04;8.30;;;5.63;;
45764;SDS011;31474;45.332;10.230;2023-07-20T06:14:30;9.73;;;5.40;;
45764;SDS011;31474;45.332;10.230;2023-07-20T06:16:56;13.07;;;5.55;;
45764;SDS011;31474;45.332;10.230;2023-07-20T06:19:22;8.45;;;5.45;;
45764;SDS011;31474;45.332;10.230;2023-07-20T06:21:48;9.15;;;6.20;;
45764;SDS011;31474;45.332;10.230;2023-07-20T06:24:14;11.70;;;5.53;;
45764;SDS011;31474;45.332;10.230;2023-07-20T06:26:40;11.52;;;7.05;;
45764;SDS011;31474;45.332;10.230;2023-07-20T06:29:06;8.10;;;6.00;;
45764;SDS011;31474;45.332;10.230;2023-07-20T06:31:32;8.40;;;5.80;;
45764;SDS011;31474;45.332;10.230;2023-07-20T06:33:59;9.38;;;6.13;;
45764;SDS011;31474;45.332;10.230;2023-07-20T06:36:26;15.52;;;5.97;;
45764;SDS011;31474;45.332;10.230;2023-07-20T06:38:51;15.73;;;7.32;;
45764;SDS011;31474;45.332;10.230;2023-07-20T06:41:18;10.10;;;6.30;;
45764;SDS011;31474;45.332;10.230;2023-07-20T06:43:44;9.20;;;5.97;;
45764;SDS011;31474;45.332;10.230;2023-07-20T06:46:10;9.05;;;6.57;;
45764;SDS011;31474;45.332;10.230;2023-07-20T06:48:36;9.15;;;6.45;;
45764;SDS011;31474;45.332;10.230;2023-07-20T06:51:01;9.20;;;6.57;;
45764;SDS011;31474;45.332;10.230;2023-07-20T06:53:28;13.35;;;7.15;;
45764;SDS011;31474;45.332;10.230;2023-07-20T06:55:54;10.95;;;6.40;;
45764;SDS011;31474;45.332;10.230;2023-07-20T06:58:22;7.95;;;6.45;;
45764;SDS011;31474;45.332;10.230;2023-07-20T07:00:51;9.65;;;6.50;;
45764;SDS011;31474;45.332;10.230;2023-07-20T07:03:16;8.35;;;6.07;;
45764;SDS011;31474;45.332;10.230;2023-07-20T07:05:43;12.68;;;7.10;;
45764;SDS011;31474;45.332;10.230;2023-07-20T07:08:10;12.35;;;7.60;;
45764;SDS011;31474;45.332;10.230;2023-07-20T07:10:36;9.45;;;6.47;;
45764;SDS011;31474;45.332;10.230;2023-07-20T07:13:02;9.75;;;6.72;;
45764;SDS011;31474;45.332;10.230;2023-07-20T07:15:29;9.80;;;6.30;;
45764;SDS011;31474;45.332;10.230;2023-07-20T07:17:54;11.85;;;6.32;;
45764;SDS011;31474;45.332;10.230;2023-07-20T07:20:21;12.88;;;6.57;;
45764;SDS011;31474;45.332;10.230;2023-07-20T07:22:50;9.10;;;5.97;;
45764;SDS011;31474;45.332;10.230;2023-07-20T07:25:16;13.77;;;7.05;;
45764;SDS011;31474;45.332;10.230;2023-07-20T07:27:42;12.40;;;7.40;;
45764;SDS011;31474;45.332;10.230;2023-07-20T07:30:08;15.98;;;6.78;;
45764;SDS011;31474;45.332;10.230;2023-07-20T07:32:34;14.25;;;7.20;;
45764;SDS011;31474;45.332;10.230;2023-07-20T07:34:59;13.48;;;7.63;;
45764;SDS011;31474;45.332;10.230;2023-07-20T07:37:25;10.40;;;6.93;;
45764;SDS011;31474;45.332;10.230;2023-07-20T07:39:51;11.05;;;7.70;;
45764;SDS011;31474;45.332;10.230;2023-07-20T07:42:17;11.98;;;7.60;;
45764;SDS011;31474;45.332;10.230;2023-07-20T07:44:43;13.57;;;8.50;;
45764;SDS011;31474;45.332;10.230;2023-07-20T07:47:09;14.35;;;8.63;;
45764;SDS011;31474;45.332;10.230;2023-07-20T07:49:35;10.23;;;7.75;;
45764;SDS011;31474;45.332;10.230;2023-07-20T07:52:01;11.43;;;7.82;;
45764;SDS011;31474;45.332;10.230;2023-07-20T07:54:29;13.63;;;8.48;;
45764;SDS011;31474;45.332;10.230;2023-07-20T07:56:55;12.73;;;8.48;;
45764;SDS011;31474;45.332;10.230;2023-07-20T07:59:21;14.05;;;8.75;;
45764;SDS011;31474;45.332;10.230;2023-07-20T08:01:47;20.73;;;9.32;;
45764;SDS011;31474;45.332;10.230;2023-07-20T08:04:13;14.95;;;9.30;;
45764;SDS011;31474;45.332;10.230;2023-07-20T08:06:39;14.88;;;8.88;;
45764;SDS011;31474;45.332;10.230;2023-07-20T08:09:04;12.95;;;7.95;;
45764;SDS011;31474;45.332;10.230;2023-07-20T08:11:30;10.93;;;8.85;;
45764;SDS011;31474;45.332;10.230;2023-07-20T08:13:59;16.73;;;8.45;;
45764;SDS011;31474;45.332;10.230;2023-07-20T08:16:25;12.85;;;8.50;;
45764;SDS011;31474;45.332;10.230;2023-07-20T08:18:50;15.65;;;8.82;;
45764;SDS011;31474;45.332;10.230;2023-07-20T08:21:16;13.45;;;8.18;;
45764;SDS011;31474;45.332;10.230;2023-07-20T08:23:42;19.88;;;8.55;;
45764;SDS011;31474;45.332;10.230;2023-07-20T08:26:08;12.23;;;8.52;;
45764;SDS011;31474;45.332;10.230;2023-07-20T08:28:33;11.85;;;7.25;;
45764;SDS011;31474;45.332;10.230;2023-07-20T08:30:59;11.00;;;6.90;;
45764;SDS011;31474;45.332;10.230;2023-07-20T08:33:25;11.00;;;6.20;;
45764;SDS011;31474;45.332;10.230;2023-07-20T08:35:54;9.82;;;6.07;;
45764;SDS011;31474;45.332;10.230;2023-07-20T08:38:21;14.77;;;7.63;;
45764;SDS011;31474;45.332;10.230;2023-07-20T08:40:47;11.80;;;7.15;;
45764;SDS011;31474;45.332;10.230;2023-07-20T08:43:13;15.52;;;7.53;;
45764;SDS011;31474;45.332;10.230;2023-07-20T08:45:43;11.93;;;7.78;;
45764;SDS011;31474;45.332;10.230;2023-07-20T08:48:10;11.73;;;7.80;;
45764;SDS011;31474;45.332;10.230;2023-07-20T08:50:37;11.18;;;7.50;;
45764;SDS011;31474;45.332;10.230;2023-07-20T08:53:03;13.68;;;7.07;;
45764;SDS011;31474;45.332;10.230;2023-07-20T08:55:29;12.48;;;7.60;;
45764;SDS011;31474;45.332;10.230;2023-07-20T08:57:57;12.95;;;7.40;;
45764;SDS011;31474;45.332;10.230;2023-07-20T09:00:23;16.92;;;7.97;;
45764;SDS011;31474;45.332;10.230;2023-07-20T09:02:53;10.95;;;8.07;;
45764;SDS011;31474;45.332;10.230;2023-07-20T09:05:19;10.43;;;7.20;;
45764;SDS011;31474;45.332;10.230;2023-07-20T09:07:46;12.52;;;7.32;;
45764;SDS011;31474;45.332;10.230;2023-07-20T09:10:12;9.50;;;6.05;;
45764;SDS011;31474;45.332;10.230;2023-07-20T09:12:41;7.55;;;5.55;;
45764;SDS011;31474;45.332;10.230;2023-07-20T09:15:09;11.02;;;6.53;;
45764;SDS011;31474;45.332;10.230;2023-07-20T09:17:35;13.05;;;7.15;;
45764;SDS011;31474;45.332;10.230;2023-07-20T09:20:06;9.10;;;5.45;;
45764;SDS011;31474;45.332;10.230;2023-07-20T09:22:37;8.02;;;4.78;;
45764;SDS011;31474;45.332;10.230;2023-07-20T09:25:07;13.93;;;8.50;;
45764;SDS011;31474;45.332;10.230;2023-07-20T09:27:40;13.68;;;8.88;;
45764;SDS011;31474;45.332;10.230;2023-07-20T09:30:07;12.57;;;7.07;;
45764;SDS011;31474;45.332;10.230;2023-07-20T09:32:47;15.35;;;6.88;;
45764;SDS011;31474;45.332;10.230;2023-07-20T09:37:47;18.05;;;7.72;;
45764;SDS011;31474;45.332;10.230;2023-07-20T09:40:19;11.68;;;6.72;;
45764;SDS011;31474;45.332;10.230;2023-07-20T09:42:45;11.82;;;8.02;;
45764;SDS011;31474;45.332;10.230;2023-07-20T09:45:12;11.75;;;7.18;;
45764;SDS011;31474;45.332;10.230;2023-07-20T09:47:38;12.18;;;7.10;;
45764;SDS011;31474;45.332;10.230;2023-07-20T09:50:04;13.77;;;7.93;;
45764;SDS011;31474;45.332;10.230;2023-07-20T09:52:36;11.70;;;7.25;;
45764;SDS011;31474;45.332;10.230;2023-07-20T09:55:04;12.35;;;7.57;;
45764;SDS011;31474;45.332;10.230;2023-07-20T09:57:32;11.40;;;8.07;;
45764;SDS011;31474;45.332;10.230;2023-07-20T09:59:58;11.63;;;8.25;;
45764;SDS011;31474;45.332;10.230;2023-07-20T10:02:30;12.18;;;8.00;;
45764;SDS011;31474;45.332;10.230;2023-07-20T10:04:59;15.27;;;8.18;;
45764;SDS011;31474;45.332;10.230;2023-07-20T10:07:28;12.43;;;9.05;;
45764;SDS011;31474;45.332;10.230;2023-07-20T10:09:55;13.85;;;8.13;;
45764;SDS011;31474;45.332;10.230;2023-07-20T10:12:23;10.50;;;6.75;;
45764;SDS011;31474;45.332;10.230;2023-07-20T10:15:13;12.20;;;8.20;;
45764;SDS011;31474;45.332;10.230;2023-07-20T10:17:39;13.38;;;8.57;;
45764;SDS011;31474;45.332;10.230;2023-07-20T10:20:14;16.35;;;7.15;;
45764;SDS011;31474;45.332;10.230;2023-07-20T10:22:43;9.43;;;7.43;;
45764;SDS011;31474;45.332;10.230;2023-07-20T10:25:10;12.88;;;7.10;;
45764;SDS011;31474;45.332;10.230;2023-07-20T10:27:36;11.07;;;7.68;;
45764;SDS011;31474;45.332;10.230;2023-07-20T10:30:04;12.25;;;8.25;;
45764;SDS011;31474;45.332;10.230;2023-07-20T10:32:30;8.98;;;7.57;;
45764;SDS011;31474;45.332;10.230;2023-07-20T10:34:56;14.10;;;8.70;;
45764;SDS011;31474;45.332;10.230;2023-07-20T10:40:26;14.10;;;6.80;;
45764;SDS011;31474;45.332;10.230;2023-07-20T10:43:03;16.20;;;8.75;;
45764;SDS011;31474;45.332;10.230;2023-07-20T10:48:03;11.40;;;6.80;;
45764;SDS011;31474;45.332;10.230;2023-07-20T10:50:30;8.50;;;6.45;;
45764;SDS011;31474;45.332;10.230;2023-07-20T10:53:18;8.20;;;5.75;;
45764;SDS011;31474;45.332;10.230;2023-07-20T10:55:44;8.00;;;6.28;;
45764;SDS011;31474;45.332;10.230;2023-07-20T10:58:12;8.35;;;5.07;;
45764;SDS011;31474;45.332;10.230;2023-07-20T11:00:54;12.40;;;6.00;;
45764;SDS011;31474;45.332;10.230;2023-07-20T11:03:31;12.43;;;6.53;;
45764;SDS011;31474;45.332;10.230;2023-07-20T11:05:58;11.45;;;5.93;;
45764;SDS011;31474;45.332;10.230;2023-07-20T11:08:43;12.45;;;4.70;;
45764;SDS011;31474;45.332;10.230;2023-07-20T11:13:58;10.82;;;5.97;;
45764;SDS011;31474;45.332;10.230;2023-07-20T11:16:41;8.25;;;5.82;;
45764;SDS011;31474;45.332;10.230;2023-07-20T11:19:21;11.23;;;7.32;;
45764;SDS011;31474;45.332;10.230;2023-07-20T11:21:52;12.30;;;9.52;;
45764;SDS011;31474;45.332;10.230;2023-07-20T11:24:19;15.43;;;7.90;;
45764;SDS011;31474;45.332;10.230;2023-07-20T11:26:45;13.45;;;8.93;;
45764;SDS011;31474;45.332;10.230;2023-07-20T11:29:18;11.77;;;7.22;;
45764;SDS011;31474;45.332;10.230;2023-07-20T11:31:46;13.02;;;7.50;;
45764;SDS011;31474;45.332;10.230;2023-07-20T11:36:45;9.77;;;6.30;;
45764;SDS011;31474;45.332;10.230;2023-07-20T11:39:13;10.18;;;5.82;;
45764;SDS011;31474;45.332;10.230;2023-07-20T11:41:44;10.85;;;6.15;;
45764;SDS011;31474;45.332;10.230;2023-07-20T11:44:15;11.40;;;5.63;;
45764;SDS011;31474;45.332;10.230;2023-07-20T11:46:45;8.60;;;5.35;;
45764;SDS011;31474;45.332;10.230;2023-07-20T11:49:11;10.15;;;5.43;;
45764;SDS011;31474;45.332;10.230;2023-07-20T11:51:37;10.38;;;7.28;;
45764;SDS011;31474;45.332;10.230;2023-07-20T11:54:05;10.07;;;7.03;;
45764;SDS011;31474;45.332;10.230;2023-07-20T11:56:32;8.77;;;6.38;;
45764;SDS011;31474;45.332;10.230;2023-07-20T11:58:58;9.57;;;5.65;;
45764;SDS011;31474;45.332;10.230;2023-07-20T12:01:26;10.38;;;5.88;;
45764;SDS011;31474;45.332;10.230;2023-07-20T12:03:57;9.80;;;5.78;;
45764;SDS011;31474;45.332;10.230;2023-07-20T12:06:24;10.13;;;4.25;;
45764;SDS011;31474;45.332;10.230;2023-07-20T12:08:50;8.25;;;4.97;;
45764;SDS011;31474;45.332;10.230;2023-07-20T12:11:33;8.15;;;4.32;;
45764;SDS011;31474;45.332;10.230;2023-07-20T12:13:59;7.30;;;3.95;;
45764;SDS011;31474;45.332;10.230;2023-07-20T12:16:28;6.28;;;3.28;;
45764;SDS011;31474;45.332;10.230;2023-07-20T12:19:08;4.90;;;3.53;;
45764;SDS011;31474;45.332;10.230;2023-07-20T12:21:35;7.60;;;4.25;;
45764;SDS011;31474;45.332;10.230;2023-07-20T12:24:02;4.75;;;4.07;;
45764;SDS011;31474;45.332;10.230;2023-07-20T12:26:29;6.22;;;3.92;;
45764;SDS011;31474;45.332;10.230;2023-07-20T12:28:55;6.82;;;4.00;;
45764;SDS011;31474;45.332;10.230;2023-07-20T12:31:21;6.40;;;3.22;;
45764;SDS011;31474;45.332;10.230;2023-07-20T12:33:48;5.80;;;3.40;;
45764;SDS011;31474;45.332;10.230;2023-07-20T12:36:14;5.25;;;3.58;;
45764;SDS011;31474;45.332;10.230;2023-07-20T12:38:40;4.53;;;3.83;;
45764;SDS011;31474;45.332;10.230;2023-07-20T12:41:07;4.93;;;3.33;;
45764;SDS011;31474;45.332;10.230;2023-07-20T12:43:34;7.88;;;3.90;;
45764;SDS011;31474;45.332;10.230;2023-07-20T12:46:00;7.95;;;4.07;;
45764;SDS011;31474;45.332;10.230;2023-07-20T12:48:26;6.35;;;3.78;;
45764;SDS011;31474;45.332;10.230;2023-07-20T12:50:51;6.82;;;3.28;;
45764;SDS011;31474;45.332;10.230;2023-07-20T12:53:17;5.45;;;3.60;;
45764;SDS011;31474;45.332;10.230;2023-07-20T12:55:43;4.53;;;3.40;;
45764;SDS011;31474;45.332;10.230;2023-07-20T12:58:09;7.53;;;3.88;;
45764;SDS011;31474;45.332;10.230;2023-07-20T13:00:36;5.68;;;3.78;;
45764;SDS011;31474;45.332;10.230;2023-07-20T13:03:02;7.78;;;4.13;;
45764;SDS011;31474;45.332;10.230;2023-07-20T13:05:32;4.63;;;3.90;;
45764;SDS011;31474;45.332;10.230;2023-07-20T13:07:57;7.25;;;4.28;;
45764;SDS011;31474;45.332;10.230;2023-07-20T13:10:23;5.93;;;4.45;;
45764;SDS011;31474;45.332;10.230;2023-07-20T13:12:49;5.55;;;3.08;;
45764;SDS011;31474;45.332;10.230;2023-07-20T13:15:15;4.22;;;3.42;;
45764;SDS011;31474;45.332;10.230;2023-07-20T13:17:44;6.55;;;3.60;;
45764;SDS011;31474;45.332;10.230;2023-07-20T13:20:10;4.10;;;3.38;;
45764;SDS011;31474;45.332;10.230;2023-07-20T13:22:39;5.35;;;3.42;;
45764;SDS011;31474;45.332;10.230;2023-07-20T13:25:06;4.50;;;3.85;;
45764;SDS011;31474;45.332;10.230;2023-07-20T13:27:33;7.47;;;3.90;;
45764;SDS011;31474;45.332;10.230;2023-07-20T13:29:59;6.75;;;4.20;;
45764;SDS011;31474;45.332;10.230;2023-07-20T13:32:26;6.55;;;3.80;;
45764;SDS011;31474;45.332;10.230;2023-07-20T13:34:52;8.02;;;3.53;;
45764;SDS011;31474;45.332;10.230;2023-07-20T13:37:18;7.22;;;3.60;;
45764;SDS011;31474;45.332;10.230;2023-07-20T13:39:44;5.22;;;3.80;;
45764;SDS011;31474;45.332;10.230;2023-07-20T13:42:09;6.47;;;4.05;;
45764;SDS011;31474;45.332;10.230;2023-07-20T13:44:37;6.22;;;3.08;;
45764;SDS011;31474;45.332;10.230;2023-07-20T13:47:03;9.68;;;4.20;;
45764;SDS011;31474;45.332;10.230;2023-07-20T13:49:31;3.28;;;2.97;;
45764;SDS011;31474;45.332;10.230;2023-07-20T13:51:57;6.00;;;3.25;;
45764;SDS011;31474;45.332;10.230;2023-07-20T13:54:23;6.90;;;3.42;;
45764;SDS011;31474;45.332;10.230;2023-07-20T13:56:49;4.75;;;3.65;;
45764;SDS011;31474;45.332;10.230;2023-07-20T13:59:15;5.40;;;3.17;;
45764;SDS011;31474;45.332;10.230;2023-07-20T14:01:41;5.80;;;3.55;;
45764;SDS011;31474;45.332;10.230;2023-07-20T14:04:07;7.32;;;4.18;;
45764;SDS011;31474;45.332;10.230;2023-07-20T14:06:34;6.72;;;3.42;;
45764;SDS011;31474;45.332;10.230;2023-07-20T14:09:00;5.25;;;3.10;;
45764;SDS011;31474;45.332;10.230;2023-07-20T14:11:25;6.75;;;3.95;;
45764;SDS011;31474;45.332;10.230;2023-07-20T14:13:52;6.97;;;3.65;;
45764;SDS011;31474;45.332;10.230;2023-07-20T14:16:18;7.20;;;3.95;;
45764;SDS011;31474;45.332;10.230;2023-07-20T14:18:47;7.88;;;4.18;;
45764;SDS011;31474;45.332;10.230;2023-07-20T14:21:14;6.68;;;4.05;;
45764;SDS011;31474;45.332;10.230;2023-07-20T14:23:40;5.80;;;4.07;;
45764;SDS011;31474;45.332;10.230;2023-07-20T14:26:05;7.57;;;3.90;;
45764;SDS011;31474;45.332;10.230;2023-07-20T14:28:32;10.30;;;4.32;;
45764;SDS011;31474;45.332;10.230;2023-07-20T14:30:58;4.93;;;3.60;;
45764;SDS011;31474;45.332;10.230;2023-07-20T14:33:23;5.68;;;4.00;;
45764;SDS011;31474;45.332;10.230;2023-07-20T14:35:49;10.63;;;4.88;;
45764;SDS011;31474;45.332;10.230;2023-07-20T14:38:15;7.65;;;4.30;;
45764;SDS011;31474;45.332;10.230;2023-07-20T14:40:41;10.25;;;4.97;;
45764;SDS011;31474;45.332;10.230;2023-07-20T14:43:08;6.43;;;4.68;;
45764;SDS011;31474;45.332;10.230;2023-07-20T14:45:34;7.55;;;4.60;;
45764;SDS011;31474;45.332;10.230;2023-07-20T14:48:02;9.52;;;4.97;;
45764;SDS011;31474;45.332;10.230;2023-07-20T14:50:28;6.28;;;4.85;;
45764;SDS011;31474;45.332;10.230;2023-07-20T14:52:53;7.90;;;4.32;;